Flight Track Log - Related Links

Times and Time Zones

All times are in EDT time to prevent confusion due to time zone crossing. See the UPS84 flight status page for this flight to view local times or setup timezone preferences in your user account.

Time Position Orientation Groundspeed Altitude Reporting Facility
EDT Latitude Longitude Course Direction KTS MPH feet Rate Location/Type
Sat 04:14:19 AM 61.1920 -150.0030 North 10 12  Level FlightAware ADS-B
Sat 04:21:24 AM 61.1910 -150.0060 270° West 21 24 16 Level FlightAware ADS-B
Sat 04:21:53 AM 61.1900 -150.0060 180° South 29 33 36 Level FlightAware ADS-B
Sat 04:22:18 AM 61.1880 -150.0050 166° South 17 20 39 Level FlightAware ADS-B
Sat 04:22:44 AM 61.1860 -150.0030 154° Southeast 22 25 43 Level FlightAware ADS-B
Sat 04:23:42 AM 61.1790 -149.9990 165° South 28 32 47 Level FlightAware ADS-B
Sat 04:24:13 AM 61.1760 -149.9980 171° South 17 20 61 Level FlightAware ADS-B
Sat 04:24:26 AM 61.1750 -149.9970 154° Southeast 17 20 73 Level FlightAware ADS-B
Sat 04:24:50 AM 61.1730 -149.9960 166° South 19 22 79 Level FlightAware ADS-B
Sat 04:25:30 AM 61.1690 -149.9940 166° South 32 37 94 Level FlightAware ADS-B
Sat 04:26:18 AM 61.1740 -150.0000 330° Northwest 63 72 136 Level FlightAware ADS-B
Sat 04:26:26 AM 61.1770 -150.0020 342° North 94 108 300 Level FlightAware ADS-B
Sat 04:26:58 AM 61.1980 -150.0130 346° North 170 196 200 1,292 Climbing FlightAware ADS-B
Sat 04:27:31 AM 61.2220 -150.0350 336° Northwest 180 207 1,400 2,250 Climbing FlightAware ADS-B
Sat 04:27:54 AM 61.2380 -150.0590 324° Northwest 180 207 2,300 2,488 Climbing FlightAware ADS-B
Sat 04:28:12 AM 61.2450 -150.0860 298° West 173 199 3,100 1,565 Climbing FlightAware ADS-B
Sat 04:28:40 AM 61.2460 -150.1390 272° West 223 257 3,500 1,111 Climbing FlightAware ADS-B
Sat 04:29:06 AM 61.2470 -150.1990 272° West 262 302 4,100 2,111 Climbing FlightAware ADS-B
Sat 04:29:34 AM 61.2490 -150.2700 273° West 272 313 5,400 2,885 Climbing FlightAware ADS-B
Sat 04:29:58 AM 61.2510 -150.3340 274° West 282 325 6,600 2,850 Climbing FlightAware ADS-B
Sat 04:30:14 AM 61.2520 -150.3790 273° West 293 337 7,300 2,864 Climbing FlightAware ADS-B
Sat 04:30:42 AM 61.2540 -150.4570 273° West 297 342 8,700 2,955 Climbing FlightAware ADS-B
Sat 04:31:21 AM 61.2580 -150.5680 274° West 305 351 10,600 2,114 Climbing FlightAware ADS-B
Sat 04:32:10 AM 61.2630 -150.7260 274° West 356 410 11,800 1,753 Climbing FlightAware ADS-B
Sat 04:32:50 AM 61.2660 -150.8680 273° West 381 438 13,200 1,829 Climbing FlightAware ADS-B
Sat 04:33:32 AM 61.2680 -151.0260 272° West 410 472 14,300 2,000 Climbing FlightAware ADS-B
Sat 04:34:14 AM 61.2710 -151.1920 272° West 419 482 16,000 2,386 Climbing FlightAware ADS-B
Sat 04:34:55 AM 61.2730 -151.3580 272° West 428 493 17,600 2,286 Climbing FlightAware ADS-B
Sat 04:35:38 AM 61.2770 -151.5370 273° West 436 502 19,200 2,207 Climbing FlightAware ADS-B
Sat 04:36:22 AM 61.2790 -151.7240 271° West 444 511 20,800 1,744 Climbing FlightAware ADS-B
Sat 04:37:04 AM 61.2820 -151.9060 272° West 464 534 21,700 1,683 Climbing FlightAware ADS-B
Sat 04:37:44 AM 61.2840 -152.0820 271° West 466 536 23,100 2,000 Climbing FlightAware ADS-B
Sat 04:38:28 AM 61.2860 -152.2830 271° West 469 540 24,500 1,814 Climbing FlightAware ADS-B
Sat 04:39:10 AM 61.2850 -152.4710 269° West 475 547 25,700 1,643 Climbing FlightAware ADS-B
Sat 04:39:52 AM 61.2860 -152.6660 271° West 482 555 26,800 1,500 Climbing FlightAware ADS-B
Sat 04:40:26 AM 61.2860 -152.8220 270° West 486 559 27,600 1,610 Climbing FlightAware ADS-B
Sat 04:41:14 AM 61.2860 -153.0470 270° West 487 560 29,000 1,957 Climbing FlightAware ADS-B
Sat 04:41:58 AM 61.2840 -153.2490 269° West 476 548 30,600 2,020 Climbing FlightAware ADS-B
Sat 04:42:52 AM 61.2850 -153.4880 271° West 466 536 32,300 1,723 Climbing FlightAware ADS-B
Sat 04:43:32 AM 61.2840 -153.6690 269° West 461 531 33,300 1,571 Climbing FlightAware ADS-B
Sat 04:44:16 AM 61.2830 -153.8640 269° West 454 522 34,500 1,463 Climbing FlightAware ADS-B
Sat 04:44:54 AM 61.2800 -154.0200 268° West 449 517 35,300 818 Climbing FlightAware ADS-B
Sat 04:46:06 AM 61.2790 -154.3320 270° West 446 513 36,000 362 Climbing FlightAware ADS-B
Sat 04:46:50 AM 61.2750 -154.5220 268° West 446 513 36,000  Level FlightAware ADS-B
Sat 04:47:34 AM 61.2730 -154.7060 269° West 447 514 36,000  Level FlightAware ADS-B
Sat 04:48:14 AM 61.2710 -154.8810 269° West 446 513 36,000  Level FlightAware ADS-B
Sat 04:48:58 AM 61.2690 -155.0710 269° West 444 511 36,000  Level FlightAware ADS-B
Sat 04:49:56 AM 61.2640 -155.2890 267° West 444 511 36,000  Level FlightAware ADS-B
Sat 04:50:47 AM 61.2600 -155.5070 268° West 443 510 36,000  Level FlightAware ADS-B
Sat 04:51:23 AM 61.2570 -155.6370 267° West 443 510 36,000  Level FlightAware ADS-B
Sat 04:52:11 AM 61.2530 -155.8100 267° West 443 510 36,000  Level FlightAware ADS-B
Sat 04:52:48 AM 61.2490 -155.9440 267° West 443 510 36,000  Level FlightAware ADS-B
Sat 04:53:36 AM 61.2450 -156.1180 267° West 443 510 36,000  Level FlightAware ADS-B
Sat 04:54:13 AM 61.2410 -156.2520 267° West 443 510 36,000  Level FlightAware ADS-B
Sat 04:55:01 AM 61.2370 -156.4250 267° West 443 510 36,000  Level FlightAware ADS-B
Sat 04:56:00 AM 61.2320 -156.6380 267° West 443 510 36,000  Level FlightAware ADS-B
Sat 04:56:36 AM 61.2280 -156.7690 266° West 443 510 36,000  Level FlightAware ADS-B
Sat 04:57:24 AM 61.2240 -156.9420 267° West 443 510 36,000  Level FlightAware ADS-B
Sat 04:58:00 AM 61.2210 -157.0720 267° West 443 510 36,000  Level FlightAware ADS-B
Sat 04:58:37 AM 61.2170 -157.2060 267° West 443 510 36,000  Level FlightAware ADS-B
Sat 04:59:25 AM 61.2130 -157.3790 267° West 443 510 36,000  Level FlightAware ADS-B
Sat 05:00:11 AM 61.2500 -157.8833 267° West 420 483 36,000  Level Anchorage Center
Sat 05:01:11 AM 61.2333 -158.1333 262° West 430 495 36,000  Level Anchorage Center
Sat 05:02:12 AM 61.2333 -158.3833 270° West 420 483 36,000  Level Anchorage Center
Sat 05:03:12 AM 61.2333 -158.6167 270° West 420 483 36,000  Level Anchorage Center
Sat 05:04:13 AM 61.2333 -158.8667 270° West 420 483 36,000  Level Anchorage Center
Sat 05:05:13 AM 61.2333 -159.1167 270° West 430 495 36,000  Level Anchorage Center
Sat 05:06:13 AM 61.2333 -159.3667 270° West 420 483 36,000  Level Anchorage Center
Sat 05:07:13 AM 61.2167 -159.6167 262° West 420 483 36,000  Level Anchorage Center
Sat 05:08:14 AM 61.2167 -159.8500 270° West 420 483 36,000  Level Anchorage Center
Sat 05:09:14 AM 61.2167 -160.1000 270° West 420 483 36,000  Level Anchorage Center
Sat 05:10:15 AM 61.2000 -160.3500 262° West 420 483 36,000  Level Anchorage Center
Sat 05:11:15 AM 61.2000 -160.5833 270° West 420 483 36,000  Level Anchorage Center
Sat 05:12:15 AM 61.1833 -160.8500 263° West 420 483 36,000  Level Anchorage Center
Sat 05:13:16 AM 61.1833 -161.0833 270° West 420 483 36,000  Level Anchorage Center
Sat 05:14:16 AM 61.1667 -161.3333 262° West 410 472 36,000  Level Anchorage Center
Sat 05:15:16 AM 61.1667 -161.5667 270° West 410 472 36,000  Level Anchorage Center
Sat 05:16:16 AM 61.1500 -161.8000 262° West 410 472 36,000  Level Anchorage Center
Sat 05:17:17 AM 61.1500 -162.0500 270° West 400 460 36,000  Level Anchorage Center
Sat 05:18:17 AM 61.1333 -162.2833 262° West 410 472 36,000  Level Anchorage Center
Sat 05:19:17 AM 61.1333 -162.5333 270° West 420 483 36,000  Level Anchorage Center
Sat 05:20:18 AM 61.1167 -162.7667 262° West 420 483 36,000  Level Anchorage Center
Sat 05:21:18 AM 61.1000 -163.0000 262° West 410 472 36,000  Level Anchorage Center
Sat 05:22:18 AM 61.0833 -163.2333 262° West 410 472 36,000  Level Anchorage Center
Sat 05:23:19 AM 61.0500 -163.4667 254° West 420 483 36,000  Level Anchorage Center
Sat 05:24:19 AM 61.0167 -163.7000 254° West 420 483 36,000  Level Anchorage Center
Sat 05:25:19 AM 60.9667 -163.9333 246° West 420 483 36,000  Level Anchorage Center
Sat 05:26:20 AM 60.9333 -164.1833 255° West 420 483 36,000  Level Anchorage Center
Sat 05:27:20 AM 60.9000 -164.4167 254° West 430 495 36,000  Level Anchorage Center
Sat 05:28:20 AM 60.8667 -164.6500 254° West 420 483 36,000  Level Anchorage Center
Sat 05:29:21 AM 60.8333 -164.8833 254° West 420 483 36,000  Level Anchorage Center
Sat 05:30:21 AM 60.8000 -165.1000 253° West 420 483 36,000  Level Anchorage Center
Sat 05:31:22 AM 60.7667 -165.3333 254° West 420 483 36,000  Level Anchorage Center
Sat 05:32:35 AM 60.7167 -165.6167 250° West 420 483 36,000  Level Anchorage Center
Sat 05:33:35 AM 60.6833 -165.8333 253° West 420 483 36,000  Level Anchorage Center
Sat 05:34:36 AM 60.6500 -166.0667 254° West 420 483 36,000  Level Anchorage Center
Sat 05:35:36 AM 60.6000 -166.3000 247° West 420 483 36,000  Level Anchorage Center
Sat 05:36:36 AM 60.5667 -166.5333 254° West 430 495 36,000  Level Anchorage Center
Sat 05:37:36 AM 60.5333 -166.7667 254° West 430 495 36,000  Level Anchorage Center
Sat 05:38:36 AM 60.4833 -166.9833 245° Southwest 430 495 36,000  Level Anchorage Center
Sat 05:39:36 AM 60.4500 -167.2167 254° West 430 495 36,000  Level Anchorage Center
Sat 05:40:36 AM 60.4000 -167.4500 247° West 420 483 36,000  Level Anchorage Center
Sat 05:41:36 AM 60.3667 -167.6667 253° West 430 495 36,000  Level Anchorage Center
Sat 05:42:36 AM 60.3333 -167.9000 254° West 420 483 36,000  Level Anchorage Center
Sat 05:43:36 AM 60.2833 -168.1167 245° Southwest 410 472 36,000  Level Anchorage Center
Sat 05:45:36 AM 60.2000 -168.5667 250° West 420 483 36,000  Level Anchorage Center
Sat 05:46:36 AM 60.1667 -168.7833 253° West 420 483 36,000  Level Anchorage Center
Sat 05:47:36 AM 60.1167 -169.0000 245° Southwest 420 483 36,000  Level Anchorage Center
Sat 05:48:36 AM 60.0833 -169.2333 254° West 420 483 36,000  Level Anchorage Center
Sat 05:49:36 AM 60.0333 -169.4500 245° Southwest 430 495 36,000  Level Anchorage Center
Sat 05:50:36 AM 59.9833 -169.6667 245° Southwest 410 472 36,000  Level Anchorage Center
Sat 05:51:37 AM 59.9500 -169.8833 253° West 410 472 36,000  Level Anchorage Center
Sat 05:52:36 AM 59.9000 -170.1000 245° Southwest 410 472 36,000  Level Anchorage Center
Sat 05:53:37 AM 59.8667 -170.3000 252° West 410 472 36,000  Level Anchorage Center
Sat 05:54:37 AM 59.8167 -170.5167 245° Southwest 420 483 36,000  Level Anchorage Center
Sat 05:55:37 AM 59.7833 -170.7333 253° West 430 495 36,000  Level Anchorage Center
Sat 05:56:37 AM 59.7333 -170.9500 245° Southwest 410 472 36,000  Level Anchorage Center
Sat 05:57:37 AM 59.6833 -171.1500 244° Southwest 410 472 36,000  Level Anchorage Center
Sat 05:58:37 AM 59.6500 -171.3667 253° West 420 483 36,000  Level Anchorage Center
Sat 05:59:37 AM 59.6000 -171.5833 246° West 420 483 36,000  Level Anchorage Center
Sat 06:00:37 AM 59.5500 -171.8000 246° West 410 472 36,000  Level Anchorage Center
Sat 06:01:37 AM 59.5000 -172.0000 244° Southwest 410 472 36,000  Level Anchorage Center
Sat 06:02:37 AM 59.4667 -172.2167 253° West 410 472 36,000  Level Anchorage Center
Sat 06:03:37 AM 59.4167 -172.4333 246° West 410 472 36,000  Level Anchorage Center
Sat 06:04:37 AM 59.3833 -172.6500 253° West 420 483 36,000  Level Anchorage Center
Sat 06:05:37 AM 59.3333 -172.8500 244° Southwest 420 483 36,000  Level Anchorage Center
Sat 06:06:37 AM 59.2833 -173.0667 246° West 430 495 36,000  Level Anchorage Center
Sat 06:07:38 AM 59.2500 -173.2833 253° West 430 495 36,000  Level Anchorage Center
Sat 06:08:37 AM 59.2000 -173.5000 246° West 430 495 36,000  Level Anchorage Center
Sat 06:09:37 AM 59.1500 -173.7167 246° West 430 495 36,000  Level Anchorage Center
Sat 06:10:38 AM 59.1000 -173.9333 246° West 420 483 36,000  Level Anchorage Center
Sat 06:11:38 AM 59.0500 -174.1500 246° West 430 495 36,000  Level Anchorage Center
Sat 06:12:38 AM 59.0167 -174.3667 253° West 430 495 36,000  Level Anchorage Center
Sat 06:13:38 AM 58.9667 -174.5833 246° West 430 495 36,000  Level Anchorage Center
Sat 06:14:38 AM 58.9167 -174.8000 246° West 430 495 36,000  Level Anchorage Center
Sat 06:15:38 AM 58.8667 -175.0167 246° West 440 506 36,000  Level Anchorage Center
Sat 06:16:38 AM 58.8167 -175.2333 246° West 440 506 36,000  Level Anchorage Center
Sat 06:17:38 AM 58.7667 -175.4500 246° West 440 506 36,000  Level Anchorage Center
Sat 06:18:38 AM 58.7167 -175.6667 246° West 440 506 36,000  Level Anchorage Center
Sat 06:19:38 AM 58.6667 -175.8833 246° West 440 506 36,000  Level Anchorage Center
Sat 06:20:38 AM 58.6167 -176.1000 246° West 450 518 36,000  Level Anchorage Center
Sat 06:21:39 AM 58.5667 -176.3167 246° West 440 506 36,000  Level Anchorage Center
Sat 06:22:38 AM 58.5000 -176.5500 241° Southwest 450 518 36,000  Level Anchorage Center
Sat 06:23:38 AM 58.4500 -176.7667 246° West 450 518 36,000  Level Anchorage Center
Sat 06:24:39 AM 58.4000 -176.9833 246° West 450 518 36,000  Level Anchorage Center
Sat 06:25:39 AM 58.3500 -177.1833 245° Southwest 440 506 36,000  Level Anchorage Center
Sat 06:28:00 AM 58.2777 -177.4738 245° Southwest  Level FlightAware Approximate
Sat 06:31:33 AM 58.0500 -178.4167 244° Southwest 455 524 36,000  Level Anchorage Center
Sat 06:35:00 AM 57.8975 -178.9431 245° Southwest  Level FlightAware Approximate
Sat 06:36:00 AM 57.8418 -179.1505 243° Southwest  Level FlightAware Approximate
Sat 06:37:00 AM 57.7095 -179.6775 243° Southwest 455 524 36,000  Level FlightAware Transoceanic
Sat 06:38:00 AM 57.6516 -179.8853 242° Southwest 455 524 36,000  Level FlightAware Transoceanic
Sat 06:39:00 AM 57.5933 179.9076 242° Southwest 455 524 36,000  Level FlightAware Transoceanic
Sat 06:40:00 AM 57.5347 179.7011 242° Southwest 455 524 36,000  Level FlightAware Transoceanic
Sat 06:41:00 AM 57.4757 179.4953 242° Southwest 455 524 36,000  Level FlightAware Transoceanic
Sat 06:41:09 AM 57.5167 179.6167 242° Southwest 448 516 36,000  Level Anchorage Center
Sat 06:42:00 AM 57.4164 179.2901 242° Southwest 455 524 36,000  Level FlightAware Transoceanic
Sat 06:43:00 AM 57.3568 179.0856 241° Southwest 455 524 36,000  Level FlightAware Transoceanic
Sat 06:44:00 AM 57.2968 178.8818 241° Southwest 455 524 36,000  Level FlightAware Transoceanic
Sat 06:45:00 AM 57.2365 178.6787 241° Southwest 455 524 36,000  Level FlightAware Transoceanic
Sat 06:46:00 AM 57.1759 178.4762 241° Southwest 455 524 36,000  Level FlightAware Transoceanic
Sat 06:47:00 AM 57.1599 178.4056 241° Southwest 448 516 36,000  Level FlightAware Transoceanic
Sat 06:48:00 AM 57.0993 178.2061 241° Southwest 448 516 36,000  Level FlightAware Transoceanic
Sat 06:49:00 AM 57.0384 178.0072 241° Southwest 448 516 36,000  Level FlightAware Transoceanic
Sat 06:50:00 AM 56.9772 177.8089 240° Southwest 448 516 36,000  Level FlightAware Transoceanic
Sat 06:50:44 AM 56.9500 177.7167 240° Southwest 447 514 36,000  Level Anchorage Center
Sat 06:51:00 AM 56.9157 177.6113 240° Southwest 448 516 36,000  Level FlightAware Transoceanic
Sat 06:52:00 AM 56.8539 177.4144 240° Southwest 448 516 36,000  Level FlightAware Transoceanic
Sat 06:52:38 AM 56.8333 177.3500 240° Southwest 461 531 36,000  Level Anchorage Center
Sat 06:53:00 AM 56.7917 177.2181 240° Southwest 448 516 36,000  Level FlightAware Transoceanic
Sat 06:54:00 AM 56.7293 177.0224 240° Southwest 448 516 36,000  Level FlightAware Transoceanic
Sat 06:55:00 AM 56.6665 176.8275 240° Southwest 448 516 36,000  Level FlightAware Transoceanic
Sat 06:56:00 AM 56.6035 176.6331 239° Southwest 448 516 36,000  Level FlightAware Transoceanic
Sat 06:57:00 AM 56.5683 176.5220 239° Southwest 447 514 36,000  Level FlightAware Transoceanic
Sat 06:58:00 AM 56.5036 176.3252 239° Southwest 447 514 36,000  Level FlightAware Transoceanic
Sat 06:59:00 AM 56.3805 175.9589 239° Southwest 461 531 36,000  Level FlightAware Transoceanic
Sat 07:00:00 AM 56.3146 175.7628 239° Southwest 461 531 36,000  Level FlightAware Transoceanic
Sat 07:01:00 AM 56.2483 175.5675 238° Southwest 461 531 36,000  Level FlightAware Transoceanic
Sat 07:01:03 AM 56.3500 175.8667 239° Southwest 469 540 36,000  Level Anchorage Center
Sat 07:02:00 AM 56.1818 175.3728 238° Southwest 461 531 36,000  Level FlightAware Transoceanic
Sat 07:03:00 AM 56.1149 175.1789 238° Southwest 461 531 36,000  Level FlightAware Transoceanic
Sat 07:04:00 AM 56.0477 174.9855 238° Southwest 461 531 36,000  Level FlightAware Transoceanic
Sat 07:05:00 AM 55.9803 174.7929 238° Southwest 461 531 36,000  Level FlightAware Transoceanic
Sat 07:05:06 AM 56.0167 174.9333 237° Southwest 450 518 36,000  Level Anchorage Center
Sat 07:06:00 AM 55.9125 174.6009 238° Southwest 461 531 36,000  Level FlightAware Transoceanic
Sat 07:06:06 AM 55.9500 174.7500 237° Southwest 480 552 36,000  Level Anchorage Center
Sat 07:07:00 AM 55.8682 174.4755 238° Southwest 469 540 36,000  Level FlightAware Transoceanic
Sat 07:07:06 AM 55.8833 174.5333 241° Southwest 480 552 36,000  Level Anchorage Center
Sat 07:08:00 AM 55.7981 174.2796 237° Southwest 469 540 36,000  Level FlightAware Transoceanic
Sat 07:08:06 AM 55.8000 174.3167 236° Southwest 460 529 36,000  Level Anchorage Center
Sat 07:09:00 AM 55.7277 174.0844 237° Southwest 469 540 36,000  Level FlightAware Transoceanic
Sat 07:09:06 AM 55.7500 174.1667 239° Southwest 460 529 36,000  Level Anchorage Center
Sat 07:10:00 AM 55.6570 173.8899 237° Southwest 469 540 36,000  Level FlightAware Transoceanic
Sat 07:10:06 AM 55.6667 173.9500 236° Southwest 470 541 36,000  Level Anchorage Center
Sat 07:11:06 AM 55.6167 173.7833 242° Southwest 460 529 36,000  Level Anchorage Center
Sat 07:12:06 AM 55.5333 173.5833 234° Southwest 450 518 36,000  Level Anchorage Center
Sat 07:13:06 AM 55.4833 173.4167 242° Southwest 450 518 36,000  Level Anchorage Center
Sat 07:14:06 AM 55.4000 173.2167 234° Southwest 460 529 36,000  Level Anchorage Center
Sat 07:15:06 AM 55.3167 173.0000 236° Southwest 470 541 36,000  Level Anchorage Center
Sat 07:16:06 AM 55.2500 172.8333 235° Southwest 470 541 36,000  Level Anchorage Center
Sat 07:17:07 AM 55.1833 172.6333 240° Southwest 460 529 36,000  Level Anchorage Center
Sat 07:18:07 AM 55.1167 172.4667 235° Southwest 470 541 36,000  Level Anchorage Center
Sat 07:19:06 AM 55.0333 172.2500 236° Southwest 480 552 36,000  Level Anchorage Center
Sat 07:20:07 AM 54.9667 172.0833 235° Southwest 480 552 36,000  Level Anchorage Center
Sat 07:21:07 AM 54.8833 171.8833 234° Southwest 490 564 36,000  Level Anchorage Center
Sat 07:22:07 AM 54.8000 171.6667 236° Southwest 490 564 36,000  Level Anchorage Center
Sat 07:23:08 AM 54.7333 171.5000 235° Southwest 480 552 36,000  Level Anchorage Center
Sat 07:24:07 AM 54.6333 171.3000 229° Southwest 500 575 36,000  Level Anchorage Center
Sat 07:25:07 AM 54.5667 171.1333 235° Southwest 490 564 36,000  Level Anchorage Center
Sat 07:26:07 AM 54.4833 170.9167 237° Southwest 490 564 36,000  Level Anchorage Center
Sat 07:27:07 AM 54.4167 170.7667 233° Southwest 490 564 36,000  Level Anchorage Center
Sat 07:28:07 AM 54.3333 170.5500 237° Southwest 500 575 36,000  Level Anchorage Center
Sat 07:29:07 AM 54.2667 170.4000 233° Southwest 490 564 36,000  Level Anchorage Center
Sat 07:30:08 AM 54.1667 170.2000 230° Southwest 480 552 36,000  Level Anchorage Center
Sat 07:31:07 AM 54.0833 170.0000 235° Southwest 490 564 36,000  Level Anchorage Center
Sat 07:32:07 AM 54.0167 169.8333 236° Southwest 490 564 36,000  Level Anchorage Center
Sat 07:33:07 AM 53.9167 169.6333 230° Southwest 490 564 36,000  Level Anchorage Center
Sat 07:34:08 AM 53.8500 169.4833 233° Southwest 480 552 36,000  Level Anchorage Center
Sat 07:35:07 AM 53.7667 169.2833 235° Southwest 470 541 36,000  Level Anchorage Center
Sat 07:36:08 AM 53.7000 169.1333 233° Southwest 470 541 36,000  Level Anchorage Center
Sat 07:37:08 AM 53.6333 168.9167 243° Southwest 490 564 36,000  Level Anchorage Center
Sat 07:38:08 AM 53.5667 168.7000 243° Southwest 480 552 36,000  Level Anchorage Center
Sat 07:39:08 AM 53.5000 168.5333 236° Southwest 470 541 36,000  Level Anchorage Center
Sat 07:40:50 AM 53.4167 168.2333 240° Southwest 489 563 36,000  Level Anchorage Center
Sat 07:47:00 AM 52.9203 166.8465 239° Southwest 489 563 36,000  Level FlightAware Transoceanic
Sat 07:48:00 AM 52.8481 166.6510 238° Southwest 489 563 36,000  Level FlightAware Transoceanic
Sat 07:48:21 AM 52.8833 166.7667 239° Southwest 490 564 36,000  Level Anchorage Center
Sat 07:49:00 AM 52.7756 166.4561 238° Southwest 489 563 36,000  Level FlightAware Transoceanic
Sat 07:50:00 AM 52.7027 166.2619 238° Southwest 489 563 36,000  Level FlightAware Transoceanic
Sat 07:51:00 AM 52.6295 166.0683 238° Southwest 489 563 36,000  Level FlightAware Transoceanic
Sat 07:52:00 AM 52.5560 165.8754 238° Southwest 489 563 36,000  Level FlightAware Transoceanic
Sat 07:53:00 AM 52.4823 165.6831 238° Southwest 489 563 36,000  Level FlightAware Transoceanic
Sat 07:54:00 AM 52.4391 165.5881 238° Southwest 490 564 36,000  Level FlightAware Transoceanic
Sat 07:55:00 AM 52.3639 165.3940 238° Southwest 490 564 36,000  Level FlightAware Transoceanic
Sat 07:56:00 AM 52.2884 165.2005 237° Southwest 490 564 36,000  Level FlightAware Transoceanic
Sat 07:57:00 AM 52.2126 165.0077 237° Southwest 490 564 36,000  Level FlightAware Transoceanic
Sat 07:57:56 AM 52.1833 164.9500 237° Southwest 498 573 36,000  Level Anchorage Center
Sat 07:58:00 AM 52.1365 164.8156 237° Southwest 490 564 36,000  Level FlightAware Transoceanic
Sat 07:59:00 AM 52.0601 164.6241 237° Southwest 490 564 36,000  Level FlightAware Transoceanic
Sat 08:00:00 AM 51.9833 164.4333 237° Southwest 490 564 36,000  Level FlightAware Transoceanic
Sat 08:01:00 AM 51.9063 164.2432 237° Southwest 490 564 36,000  Level FlightAware Transoceanic
Sat 08:02:00 AM 51.8289 164.0536 236° Southwest 490 564 36,000  Level FlightAware Transoceanic
Sat 08:03:00 AM 51.7513 163.8648 236° Southwest 490 564 36,000  Level FlightAware Transoceanic
Sat 08:04:00 AM 51.7118 163.7820 236° Southwest 498 573 36,000  Level FlightAware Transoceanic
Sat 08:04:55 AM 51.6500 163.6500 236° Southwest 512 589 36,000  Level Anchorage Center
Sat 08:05:00 AM 51.6321 163.5897 236° Southwest 498 573 36,000  Level FlightAware Transoceanic
Sat 08:06:00 AM 51.5521 163.3981 236° Southwest 498 573 36,000  Level FlightAware Transoceanic
Sat 08:07:00 AM 51.4718 163.2072 236° Southwest 498 573 36,000  Level FlightAware Transoceanic
Sat 08:07:33 AM 51.4500 163.1500 236° Southwest 516 594 36,000  Level Anchorage Center
Sat 08:08:00 AM 51.3912 163.0169 236° Southwest 498 573 36,000  Level FlightAware Transoceanic
Sat 08:09:00 AM 51.3102 162.8273 236° Southwest 498 573 36,000  Level FlightAware Transoceanic
Sat 08:10:00 AM 51.2290 162.6384 235° Southwest 498 573 36,000  Level FlightAware Transoceanic
Sat 08:11:00 AM 51.1611 162.4939 235° Southwest 512 589 36,000  Level FlightAware Transoceanic
Sat 08:12:00 AM 51.0785 162.3036 235° Southwest 512 589 36,000  Level FlightAware Transoceanic
Sat 08:13:00 AM 50.9675 162.0356 235° Southwest 516 594 36,000  Level FlightAware Transoceanic
Sat 08:14:00 AM 50.8861 161.8521 235° Southwest 516 594 36,000  Level FlightAware Transoceanic
Sat 08:15:00 AM 50.8043 161.6693 235° Southwest 516 594 36,000  Level FlightAware Transoceanic
Sat 08:16:00 AM 50.7223 161.4871 234° Southwest 516 594 36,000  Level FlightAware Transoceanic
Sat 08:17:00 AM 50.6400 161.3056 234° Southwest 516 594 36,000  Level FlightAware Transoceanic
Sat 08:17:28 AM 50.6833 161.3833 234° Southwest 526 605 36,000  Level Anchorage Center
Sat 08:18:00 AM 50.5575 161.1246 234° Southwest 516 594 36,000  Level FlightAware Transoceanic
Sat 08:19:00 AM 50.4746 160.9444 234° Southwest 516 594 36,000  Level FlightAware Transoceanic
Sat 08:20:00 AM 50.3915 160.7647 234° Southwest 516 594 36,000  Level FlightAware Transoceanic
Sat 08:21:00 AM 50.3081 160.5857 234° Southwest 516 594 36,000  Level FlightAware Transoceanic
Sat 08:22:00 AM 50.2244 160.4073 234° Southwest 516 594 36,000  Level FlightAware Transoceanic
Sat 08:22:38 AM 50.2000 160.3833 234° Southwest 529 609 36,000  Level Anchorage Center
Sat 08:23:00 AM 50.1604 160.2640 233° Southwest 526 605 36,000  Level FlightAware Transoceanic
Sat 08:24:00 AM 50.0723 160.0799 233° Southwest 526 605 36,000  Level FlightAware Transoceanic
Sat 08:25:00 AM 49.9838 159.8964 233° Southwest 526 605 36,000  Level FlightAware Transoceanic
Sat 08:26:00 AM 49.8950 159.7136 233° Southwest 526 605 36,000  Level FlightAware Transoceanic
Sat 08:27:00 AM 49.8060 159.5315 233° Southwest 526 605 36,000  Level FlightAware Transoceanic
Sat 08:28:00 AM 49.7167 159.3500 233° Southwest 526 605 36,000  Level FlightAware Transoceanic
Sat 08:29:00 AM 49.6315 159.1761 233° Southwest 529 609 36,000  Level FlightAware Transoceanic
Sat 08:30:00 AM 49.5460 159.0029 233° Southwest 529 609 36,000  Level FlightAware Transoceanic
Sat 08:31:00 AM 49.4603 158.8303 233° Southwest 529 609 36,000  Level FlightAware Transoceanic
Sat 08:32:00 AM 49.3744 158.6582 232° Southwest 529 609 36,000  Level FlightAware Transoceanic
Sat 08:33:00 AM 49.2881 158.4868 232° Southwest 529 609 36,000  Level FlightAware Transoceanic
Sat 08:34:00 AM 49.2017 158.3160 232° Southwest 529 609 36,000  Level FlightAware Transoceanic
Sat 08:35:00 AM 49.1149 158.1457 232° Southwest 529 609 36,000  Level FlightAware Transoceanic
Sat 08:36:00 AM 49.0280 157.9761 232° Southwest 529 609 36,000  Level FlightAware Transoceanic
Sat 08:37:00 AM 48.9408 157.8071 232° Southwest 529 609 36,000  Level FlightAware Transoceanic
Sat 08:38:00 AM 48.8533 157.6386 232° Southwest 529 609 36,000  Level FlightAware Transoceanic
Sat 08:39:00 AM 48.7656 157.4707 232° Southwest 529 609 36,000  Level FlightAware Transoceanic
Sat 08:40:00 AM 48.6776 157.3034 231° Southwest 529 609 36,000  Level FlightAware Transoceanic
Sat 08:41:00 AM 48.5894 157.1367 231° Southwest 529 609 36,000  Level FlightAware Transoceanic
Sat 08:42:00 AM 48.5010 156.9706 231° Southwest 529 609 36,000  Level FlightAware Transoceanic
Sat 08:43:00 AM 48.4123 156.8051 231° Southwest 529 609 36,000  Level FlightAware Transoceanic
Sat 08:44:00 AM 48.3234 156.6401 231° Southwest 529 609 36,000  Level FlightAware Transoceanic
Sat 08:45:00 AM 48.2343 156.4757 231° Southwest 529 609 36,000  Level FlightAware Transoceanic
Sat 08:46:00 AM 48.1449 156.3119 231° Southwest 529 609 36,000  Level FlightAware Transoceanic
Sat 08:47:00 AM 48.0553 156.1487 231° Southwest 529 609 36,000  Level FlightAware Transoceanic
Sat 08:48:00 AM 47.9654 155.9860 230° Southwest 529 609 36,000  Level FlightAware Transoceanic
Sat 08:49:00 AM 47.8754 155.8239 230° Southwest 529 609 36,000  Level FlightAware Transoceanic
Sat 08:50:00 AM 47.7851 155.6624 230° Southwest 529 609 36,000  Level FlightAware Transoceanic
Sat 08:51:00 AM 47.6945 155.5014 230° Southwest 529 609 36,000  Level FlightAware Transoceanic
Sat 08:52:00 AM 47.6038 155.3409 230° Southwest 529 609 36,000  Level FlightAware Transoceanic
Sat 08:53:00 AM 47.5128 155.1811 230° Southwest 529 609 36,000  Level FlightAware Transoceanic
Sat 08:54:00 AM 47.4216 155.0218 230° Southwest 529 609 36,000  Level FlightAware Transoceanic
Sat 08:55:00 AM 47.3302 154.8630 230° Southwest 529 609 36,000  Level FlightAware Transoceanic
Sat 08:56:00 AM 47.2386 154.7048 229° Southwest 529 609 36,000  Level FlightAware Transoceanic
Sat 08:57:00 AM 47.1468 154.5471 229° Southwest 529 609 36,000  Level FlightAware Transoceanic
Sat 08:58:00 AM 47.0547 154.3900 229° Southwest 529 609 36,000  Level FlightAware Transoceanic
Sat 08:59:00 AM 46.9624 154.2334 229° Southwest 529 609 36,000  Level FlightAware Transoceanic
Sat 09:00:00 AM 46.8699 154.0774 229° Southwest 529 609 36,000  Level FlightAware Transoceanic
Sat 09:01:00 AM 46.7772 153.9219 229° Southwest 529 609 36,000  Level FlightAware Transoceanic
Sat 09:02:00 AM 46.6843 153.7669 229° Southwest 529 609 36,000  Level FlightAware Transoceanic
Sat 09:03:00 AM 46.5912 153.6125 229° Southwest 529 609 36,000  Level FlightAware Transoceanic
Sat 09:04:00 AM 46.4979 153.4586 229° Southwest 529 609 36,000  Level FlightAware Transoceanic
Sat 09:05:00 AM 46.4043 153.3052 228° Southwest 529 609 36,000  Level FlightAware Transoceanic
Sat 09:06:00 AM 46.3106 153.1523 228° Southwest 529 609 36,000  Level FlightAware Transoceanic
Sat 09:07:00 AM 46.2279 153.0182 228° Southwest  Level FlightAware Approximate
Sat 09:08:00 AM 46.1451 152.8845 228° Southwest  Level FlightAware Approximate
Sat 09:09:00 AM 46.1560 152.9032 228° Southwest  Level FlightAware Approximate
Sat 09:10:00 AM 46.0726 152.7705 228° Southwest  Level FlightAware Approximate
Sat 09:11:00 AM 45.9889 152.6383 228° Southwest  Level FlightAware Approximate
Sat 09:12:00 AM 45.9052 152.5064 228° Southwest  Level FlightAware Approximate
Sat 09:13:00 AM 45.8213 152.3749 228° Southwest  Level FlightAware Approximate
Sat 09:14:00 AM 45.7372 152.2438 227° Southwest  Level FlightAware Approximate
Sat 09:15:00 AM 45.6530 152.1131 227° Southwest  Level FlightAware Approximate
Sat 09:16:00 AM 45.5686 151.9828 227° Southwest  Level FlightAware Approximate
Sat 09:17:00 AM 45.4841 151.8529 227° Southwest  Level FlightAware Approximate
Sat 09:18:00 AM 45.3994 151.7234 227° Southwest  Level FlightAware Approximate
Sat 09:19:00 AM 45.3146 151.5943 227° Southwest  Level FlightAware Approximate
Sat 09:20:00 AM 45.2296 151.4656 227° Southwest  Level FlightAware Approximate
Sat 09:21:00 AM 45.1445 151.3372 227° Southwest  Level FlightAware Approximate
Sat 09:22:00 AM 45.0593 151.2092 227° Southwest  Level FlightAware Approximate
Sat 09:23:00 AM 44.9739 151.0816 227° Southwest  Level FlightAware Approximate
Sat 09:24:00 AM 44.8884 150.9544 227° Southwest  Level FlightAware Approximate
Sat 09:25:00 AM 44.8027 150.8276 226° Southwest  Level FlightAware Approximate
Sat 09:26:00 AM 44.7169 150.7011 226° Southwest  Level FlightAware Approximate
Sat 09:27:00 AM 44.6309 150.5751 226° Southwest  Level FlightAware Approximate
Sat 09:28:00 AM 44.5448 150.4494 226° Southwest  Level FlightAware Approximate
Sat 09:29:00 AM 44.4586 150.3240 226° Southwest  Level FlightAware Approximate
Sat 09:30:00 AM 44.3723 150.1990 226° Southwest  Level FlightAware Approximate
Sat 09:31:00 AM 44.2858 150.0744 226° Southwest  Level FlightAware Approximate
Sat 09:32:00 AM 44.1991 149.9502 226° Southwest  Level FlightAware Approximate
Sat 09:33:00 AM 44.1124 149.8263 226° Southwest  Level FlightAware Approximate
Sat 09:34:00 AM 44.0255 149.7028 226° Southwest  Level FlightAware Approximate
Sat 09:35:00 AM 43.9384 149.5797 226° Southwest  Level FlightAware Approximate
Sat 09:36:00 AM 43.8513 149.4569 225° Southwest  Level FlightAware Approximate
Sat 09:37:00 AM 43.7640 149.3345 225° Southwest  Level FlightAware Approximate
Sat 09:37:35 AM 43.2780 148.6620 225° Southwest 485 558 36,000  Level FlightAware ADS-B
Sat 09:38:00 AM 43.6766 149.2124 225° Southwest  Level FlightAware Approximate
Sat 09:38:24 AM 43.1930 148.5470 225° Southwest 488 562 36,000  Level FlightAware ADS-B
Sat 09:39:22 AM 43.1050 148.4280 225° Southwest 496 571 36,100 48 Climbing FlightAware ADS-B
Sat 09:40:28 AM 42.9880 148.2690 225° Southwest 499 574 36,100 -38 Level FlightAware ADS-B
Sat 09:41:58 AM 42.8410 148.0710 225° Southwest 497 572 36,000 -44 Descending FlightAware ADS-B
Sat 09:42:43 AM 42.7690 147.9750 224° Southwest 497 572 36,000  Level FlightAware ADS-B
Sat 09:43:23 AM 42.7080 147.8930 225° Southwest 495 570 36,000  Level FlightAware ADS-B
Sat 09:44:03 AM 42.6360 147.7980 224° Southwest 495 570 36,000  Level FlightAware ADS-B
Sat 09:44:44 AM 42.5700 147.7110 224° Southwest 493 567 36,000  Level FlightAware ADS-B
Sat 09:44:55 AM 42.5510 147.6860 224° Southwest 493 567 36,000  Level FlightAware ADS-B
Sat 09:48:00 AM 42.2765 147.3243 225° Southwest  Level FlightAware Approximate
Sat 09:48:10 AM 42.2500 147.2910 225° Southwest 493 567 36,000  Level FlightAware ADS-B
Sat 09:48:45 AM 42.1760 147.1940 224° Southwest 493 567 36,000  Level FlightAware ADS-B
Sat 09:49:30 AM 42.1020 147.0980 224° Southwest 494 568 36,000  Level FlightAware ADS-B
Sat 09:51:08 AM 41.9460 146.8990 224° Southwest 495 570 36,000  Level FlightAware ADS-B
Sat 09:52:03 AM 41.8490 146.7730 224° Southwest 490 564 36,000  Level FlightAware ADS-B
Sat 09:53:03 AM 41.7500 146.6460 224° Southwest 490 564 36,000  Level FlightAware ADS-B
Sat 09:53:43 AM 41.6840 146.5610 224° Southwest 490 564 36,000  Level FlightAware ADS-B
Sat 09:54:26 AM 41.6180 146.4770 224° Southwest 490 564 36,000  Level FlightAware ADS-B
Sat 09:56:13 AM 41.4360 146.2470 223° Southwest 488 562 36,000  Level FlightAware ADS-B
Sat 09:57:03 AM 41.3520 146.1410 223° Southwest 490 564 36,000  Level FlightAware ADS-B
Sat 09:57:43 AM 41.2850 146.0580 223° Southwest 490 564 36,000  Level FlightAware ADS-B
Sat 09:58:38 AM 41.1930 145.9430 223° Southwest 488 562 36,000  Level FlightAware ADS-B
Sat 09:59:18 AM 41.1260 145.8600 223° Southwest 488 562 36,000  Level FlightAware ADS-B
Sat 09:59:48 AM 41.0760 145.7970 224° Southwest 493 567 36,000  Level FlightAware ADS-B
Sat 10:01:30 AM 40.9070 145.5890 223° Southwest 485 558 36,000 43 Level FlightAware ADS-B
Sat 10:02:06 AM 40.8480 145.5160 223° Southwest 488 562 36,100  Climbing FlightAware ADS-B
Sat 10:02:51 AM 40.7760 145.4280 223° Southwest 486 559 36,000 -71 Descending FlightAware ADS-B
Sat 10:03:31 AM 40.7070 145.3440 223° Southwest 485 558 36,000  Level FlightAware ADS-B
Sat 10:04:12 AM 40.6410 145.2630 223° Southwest 484 557 36,000  Level FlightAware ADS-B
Sat 10:05:09 AM 40.5460 145.1480 223° Southwest 486 559 36,000  Level FlightAware ADS-B
Sat 10:06:04 AM 40.4570 145.0400 223° Southwest 486 559 36,000  Level FlightAware ADS-B
Sat 10:06:44 AM 40.3970 144.9470 230° Southwest 487 560 36,000  Level FlightAware ADS-B
Sat 10:07:34 AM 40.3430 144.8290 239° Southwest 485 558 36,000  Level FlightAware ADS-B
Sat 10:08:16 AM 40.2890 144.7150 238° Southwest 483 556 36,000  Level FlightAware ADS-B
Sat 10:09:11 AM 40.2340 144.5950 239° Southwest 483 556 36,000  Level FlightAware ADS-B
Sat 10:09:45 AM 40.2010 144.5220 239° Southwest 483 556 36,000  Level FlightAware ADS-B
Sat 10:11:13 AM 40.1150 144.3350 239° Southwest 483 556 36,000  Level FlightAware ADS-B
Sat 10:11:52 AM 40.0760 144.2520 238° Southwest 483 556 36,000  Level FlightAware ADS-B
Sat 10:12:36 AM 40.0330 144.1580 239° Southwest 483 556 36,000  Level FlightAware ADS-B
Sat 10:13:21 AM 39.9890 144.0620 239° Southwest 483 556 36,000  Level FlightAware ADS-B
Sat 10:13:57 AM 39.9540 143.9860 239° Southwest 483 556 36,000  Level FlightAware ADS-B
Sat 10:14:46 AM 39.9060 143.8820 239° Southwest 483 556 36,000  Level FlightAware ADS-B
Sat 10:17:00 AM 39.7411 143.5907 238° Southwest  Level FlightAware Approximate
Sat 10:18:00 AM 39.6753 143.4538 238° Southwest  Level FlightAware Approximate
Sat 10:19:00 AM 39.6092 143.3172 238° Southwest  Level FlightAware Approximate
Sat 10:19:10 AM 39.6130 143.0830 238° Southwest 466 536 36,000  Level FlightAware ADS-B
Sat 10:19:57 AM 39.5680 142.9520 246° West 467 537 36,000  Level FlightAware ADS-B
Sat 10:22:00 AM 39.3843 142.7236 224° Southwest  Level FlightAware Approximate
Sat 10:22:27 AM 39.4370 142.5750 224° Southwest 456 525 36,000  Level FlightAware ADS-B
Sat 10:23:27 AM 39.3840 142.4250 245° Southwest 453 521 36,000  Level FlightAware ADS-B
Sat 10:24:03 AM 39.3530 142.3350 246° West 452 520 36,000  Level FlightAware ADS-B
Sat 10:24:44 AM 39.3180 142.2370 245° Southwest 452 520 36,000  Level FlightAware ADS-B
Sat 10:25:59 AM 39.2490 142.0450 245° Southwest 474 545 36,000  Level FlightAware ADS-B
Sat 10:26:42 AM 39.2120 141.9420 245° Southwest 475 547 36,000  Level FlightAware ADS-B
Sat 10:27:23 AM 39.1710 141.8280 245° Southwest 475 547 36,000  Level FlightAware ADS-B
Sat 10:28:05 AM 39.1330 141.7220 245° Southwest 477 549 36,000  Level FlightAware ADS-B
Sat 10:29:05 AM 39.0760 141.5640 245° Southwest 475 547 36,000  Level FlightAware ADS-B
Sat 10:29:40 AM 39.0430 141.4740 245° Southwest 473 544 36,000  Level FlightAware ADS-B
Sat 10:29:56 AM 39.0290 141.4360 245° Southwest 472 543 36,000  Level FlightAware ADS-B
Sat 10:32:00 AM 38.9400 141.1263 250° West  Level Estimated
Sat 10:32:12 AM 38.9030 141.0960 250° West 473 544 36,000  Level FlightAware ADS-B
Sat 10:32:54 AM 38.8630 140.9860 245° Southwest 472 543 36,000  Level FlightAware ADS-B
Sat 10:33:48 AM 38.8100 140.8440 244° Southwest 472 543 36,000  Level FlightAware ADS-B
Sat 10:34:25 AM 38.7750 140.7510 244° Southwest 470 541 36,000  Level FlightAware ADS-B
Sat 10:37:00 AM 38.6622 140.3660 250° West  Level Estimated
Sat 10:37:06 AM 38.6240 140.3480 250° West 479 551 36,000  Level FlightAware ADS-B
Sat 10:37:47 AM 38.5830 140.2430 243° Southwest 483 556 36,000  Level FlightAware ADS-B
Sat 10:38:27 AM 38.5440 140.1390 244° Southwest 489 563 36,000 73 Level FlightAware ADS-B
Sat 10:39:09 AM 38.5040 140.0360 244° Southwest 494 568 36,100 74 Climbing FlightAware ADS-B
Sat 10:39:48 AM 38.4630 139.9270 244° Southwest 498 573 36,100  Level FlightAware ADS-B
Sat 10:40:27 AM 38.4260 139.8310 244° Southwest 499 574 36,100 -73 Level FlightAware ADS-B
Sat 10:41:10 AM 38.3840 139.7210 244° Southwest 497 572 36,000 -66 Descending FlightAware ADS-B
Sat 10:41:58 AM 38.3340 139.5930 244° Southwest 495 570 36,000  Level FlightAware ADS-B
Sat 10:42:35 AM 38.2960 139.4960 243° Southwest 493 567 36,000  Level FlightAware ADS-B
Sat 10:43:18 AM 38.2520 139.3850 243° Southwest 492 566 36,000  Level FlightAware ADS-B
Sat 10:44:05 AM 38.2050 139.2630 244° Southwest 491 565 36,000  Level FlightAware ADS-B
Sat 10:44:47 AM 38.1640 139.1590 243° Southwest 494 568 36,000 48 Level FlightAware ADS-B
Sat 10:46:11 AM 38.0760 138.9380 243° Southwest 495 570 36,100 44 Climbing FlightAware ADS-B
Sat 10:47:04 AM 38.0220 138.8020 243° Southwest 494 568 36,100 -63 Level FlightAware ADS-B
Sat 10:47:46 AM 37.9790 138.6950 243° Southwest 492 566 36,000 -71 Descending FlightAware ADS-B
Sat 10:48:28 AM 37.9380 138.5910 243° Southwest 491 565 36,000  Level FlightAware ADS-B
Sat 10:49:10 AM 37.8900 138.4780 242° Southwest 494 568 36,000  Level FlightAware ADS-B
Sat 10:49:51 AM 37.8390 138.3790 237° Southwest 497 572 36,000  Level FlightAware ADS-B
Sat 10:50:45 AM 37.7680 138.2510 235° Southwest 494 568 36,000  Level FlightAware ADS-B
Sat 10:51:33 AM 37.7040 138.1350 235° Southwest 490 564 36,000  Level FlightAware ADS-B
Sat 10:52:09 AM 37.6580 138.0520 235° Southwest 489 563 36,000 76 Level FlightAware ADS-B
Sat 10:52:52 AM 37.6060 137.9600 235° Southwest 487 560 36,100  Climbing FlightAware ADS-B
Sat 10:53:34 AM 37.5490 137.8570 235° Southwest 485 558 36,000 -71 Descending FlightAware ADS-B
Sat 10:54:16 AM 37.4940 137.7590 235° Southwest 483 556 36,000  Level FlightAware ADS-B
Sat 10:56:00 AM 37.4165 137.5060 249° West  Level Estimated
Sat 10:56:24 AM 37.3340 137.4750 249° West 478 550 36,000  Level FlightAware ADS-B
Sat 10:57:03 AM 37.2810 137.3830 234° Southwest 476 548 36,000  Level FlightAware ADS-B
Sat 10:57:46 AM 37.2270 137.2860 235° Southwest 474 545 36,000  Level FlightAware ADS-B
Sat 10:58:33 AM 37.1660 137.1800 234° Southwest 456 525 36,000  Level FlightAware ADS-B
Sat 10:59:08 AM 37.1230 137.1040 235° Southwest 451 519 36,000  Level FlightAware ADS-B
Sat 10:59:53 AM 37.0660 137.0050 234° Southwest 454 522 36,000  Level FlightAware ADS-B
Sat 11:00:49 AM 36.9990 136.8880 234° Southwest 450 518 36,000  Level FlightAware ADS-B
Sat 11:01:31 AM 36.9460 136.7970 234° Southwest 452 520 36,000  Level FlightAware ADS-B
Sat 11:02:16 AM 36.8910 136.7020 234° Southwest 453 521 36,000  Level FlightAware ADS-B
Sat 11:02:51 AM 36.8490 136.6300 234° Southwest 447 514 36,000  Level FlightAware ADS-B
Sat 11:03:23 AM 36.8100 136.5610 235° Southwest 450 518 36,000  Level FlightAware ADS-B
Sat 11:04:08 AM 36.7560 136.4680 234° Southwest 449 517 36,000  Level FlightAware ADS-B
Sat 11:04:37 AM 36.7190 136.4050 234° Southwest 448 516 36,000  Level FlightAware ADS-B
Sat 11:05:48 AM 36.6320 136.2580 234° Southwest 464 534 36,000  Level FlightAware ADS-B
Sat 11:06:28 AM 36.5840 136.1750 234° Southwest 465 535 36,000  Level FlightAware ADS-B
Sat 11:07:09 AM 36.5330 136.0870 234° Southwest 465 535 36,000  Level FlightAware ADS-B
Sat 11:07:53 AM 36.4740 135.9870 234° Southwest 469 540 36,000  Level FlightAware ADS-B
Sat 11:08:28 AM 36.4300 135.9130 234° Southwest 469 540 36,000  Level FlightAware ADS-B
Sat 11:09:12 AM 36.3720 135.8140 234° Southwest 471 542 36,000  Level FlightAware ADS-B
Sat 11:09:53 AM 36.3240 135.7330 234° Southwest 471 542 36,000  Level FlightAware ADS-B
Sat 11:10:38 AM 36.2630 135.6310 233° Southwest 468 539 36,000  Level FlightAware ADS-B
Sat 11:12:13 AM 36.1440 135.4320 234° Southwest 441 507 36,000  Level FlightAware ADS-B
Sat 11:12:57 AM 36.0890 135.3400 234° Southwest 439 505 36,000  Level FlightAware ADS-B
Sat 11:13:41 AM 36.0340 135.2480 234° Southwest 439 505 36,000  Level FlightAware ADS-B
Sat 11:14:21 AM 35.9840 135.1660 233° Southwest 439 505 36,000  Level FlightAware ADS-B
Sat 11:16:58 AM 35.7930 134.8510 253° West 446 513 36,000  Level FlightAware ADS-B
Sat 11:17:00 AM 35.8726 134.7835 253° West  Level Estimated
Sat 11:17:38 AM 35.7430 134.7690 233° Southwest 447 514 36,000  Level FlightAware ADS-B
Sat 11:18:22 AM 35.6970 134.6940 233° Southwest 449 517 36,000  Level FlightAware ADS-B
Sat 11:19:03 AM 35.6400 134.6000 233° Southwest 449 517 36,000  Level FlightAware ADS-B
Sat 11:19:43 AM 35.5880 134.5150 233° Southwest 450 518 36,000 43 Level FlightAware ADS-B
Sat 11:21:22 AM 35.4660 134.3180 233° Southwest 449 517 36,100 42 Climbing FlightAware ADS-B
Sat 11:22:05 AM 35.4100 134.2270 233° Southwest 449 517 36,100 -61 Level FlightAware ADS-B
Sat 11:23:00 AM 35.3420 134.1180 233° Southwest 447 514 36,000 -63 Descending FlightAware ADS-B
Sat 11:23:40 AM 35.2930 134.0390 233° Southwest 441 507 36,000  Level FlightAware ADS-B
Sat 11:24:26 AM 35.2320 133.9420 232° Southwest 444 511 36,000  Level FlightAware ADS-B
Sat 11:25:06 AM 35.1840 133.8650 233° Southwest 444 511 36,000  Level FlightAware ADS-B
Sat 11:26:01 AM 35.1160 133.7560 233° Southwest 443 510 36,000  Level FlightAware ADS-B
Sat 11:26:31 AM 35.0770 133.6950 232° Southwest 442 509 36,000  Level FlightAware ADS-B
Sat 11:27:11 AM 35.0320 133.6240 232° Southwest 442 509 36,000  Level FlightAware ADS-B
Sat 11:27:41 AM 34.9890 133.5560 232° Southwest 443 510 36,000  Level FlightAware ADS-B
Sat 11:28:23 AM 34.9390 133.4760 233° Southwest 444 511 36,000  Level FlightAware ADS-B
Sat 11:29:06 AM 34.8830 133.3890 232° Southwest 445 512 36,000  Level FlightAware ADS-B
Sat 11:29:46 AM 34.8330 133.3100 232° Southwest 446 513 36,000  Level FlightAware ADS-B
Sat 11:30:56 AM 34.7620 133.1560 241° Southwest 445 512 36,000 52 Level FlightAware ADS-B
Sat 11:31:41 AM 34.7240 133.0540 246° West 445 512 36,100 75 Climbing FlightAware ADS-B
Sat 11:32:16 AM 34.6960 132.9770 246° West 444 511 36,100 -74 Level FlightAware ADS-B
Sat 11:33:02 AM 34.6570 132.8730 246° West 440 506 36,000 -70 Descending FlightAware ADS-B
Sat 11:33:42 AM 34.6220 132.7800 245° Southwest 441 507 36,000  Level FlightAware ADS-B
Sat 11:34:27 AM 34.5840 132.6790 245° Southwest 441 507 36,000  Level FlightAware ADS-B
Sat 11:34:54 AM 34.5620 132.6200 246° West 441 507 36,000  Level FlightAware ADS-B
Sat 11:35:37 AM 34.5240 132.5190 245° Southwest 440 506 36,000 72 Level FlightAware ADS-B
Sat 11:36:17 AM 34.4900 132.4290 245° Southwest 437 503 36,100  Climbing FlightAware ADS-B
Sat 11:37:02 AM 34.4520 132.3280 245° Southwest 434 499 36,000 -67 Descending FlightAware ADS-B
Sat 11:37:46 AM 34.4150 132.2300 245° Southwest 434 499 36,000  Level FlightAware ADS-B
Sat 11:38:22 AM 34.3840 132.1500 245° Southwest 432 497 36,000  Level FlightAware ADS-B
Sat 11:39:07 AM 34.3470 132.0530 245° Southwest 433 498 36,000 68 Level FlightAware ADS-B
Sat 11:39:50 AM 34.3170 131.9730 246° West 431 496 36,100 1,000 Climbing FlightAware ADS-B
Sat 11:40:25 AM 34.2820 131.8840 245° Southwest 425 489 37,300 1,725 Climbing FlightAware ADS-B
Sat 11:41:10 AM 34.2440 131.7850 245° Southwest 425 489 38,400 1,267 Climbing FlightAware ADS-B
Sat 11:41:55 AM 34.2070 131.6880 245° Southwest 425 489 39,200 1,000 Climbing FlightAware ADS-B
Sat 11:42:40 AM 34.1720 131.5980 245° Southwest 426 490 39,900 571 Climbing FlightAware ADS-B
Sat 11:43:19 AM 34.1390 131.5130 245° Southwest 420 483 40,000 76 Climbing FlightAware ADS-B
Sat 11:43:59 AM 34.1040 131.4230 245° Southwest 421 484 40,000  Level FlightAware ADS-B
Sat 11:44:44 AM 34.0670 131.3290 245° Southwest 422 486 40,000  Level FlightAware ADS-B
Sat 11:44:54 AM 34.0590 131.3080 245° Southwest 420 483 40,000  Level FlightAware ADS-B
Sat 11:48:00 AM 33.9432 130.8651 253° West  Level Estimated
Sat 11:49:00 AM 33.9055 130.7224 252° West  Level Estimated
Sat 11:49:51 AM 33.8300 130.7270 252° West 423 487 40,000  Level FlightAware ADS-B
Sat 11:50:00 AM 33.8677 130.5800 252° West  Level Estimated
Sat 11:52:00 AM 33.6976 130.4481 240° Southwest  Level FlightAware Approximate
Sat 11:53:00 AM 33.6244 130.3172 232° Southwest  Level FlightAware Approximate
Sat 11:54:00 AM 33.5486 130.1990 232° Southwest  Level FlightAware Approximate
Sat 11:54:07 AM 33.5920 130.1360 232° Southwest 424 488 40,000  Level FlightAware ADS-B
Sat 11:54:44 AM 33.5620 130.0620 244° Southwest 424 488 40,000  Level FlightAware ADS-B
Sat 11:55:22 AM 33.5270 129.9760 244° Southwest 425 489 40,000  Level FlightAware ADS-B
Sat 11:56:17 AM 33.4800 129.8600 244° Southwest 424 488 40,000  Level FlightAware ADS-B
Sat 11:57:30 AM 33.4190 129.7110 244° Southwest 422 486 40,000  Level FlightAware ADS-B
Sat 11:58:28 AM 33.3690 129.5890 244° Southwest 425 489 40,000  Level FlightAware ADS-B
Sat 11:59:06 AM 33.3360 129.5100 243° Southwest 425 489 40,000  Level FlightAware ADS-B
Sat 11:59:54 AM 33.2930 129.4060 244° Southwest 421 484 40,000  Level FlightAware ADS-B
Sat 12:02:00 PM 33.2190 129.1069 254° West  Level Estimated
Sat 12:03:00 PM 33.1835 128.9647 253° West  Level Estimated
Sat 12:04:00 PM 33.1479 128.8226 253° West  Level Estimated
Sat 12:04:34 PM 33.1060 128.8240 253° West 423 487 40,000  Level FlightAware ADS-B
Sat 12:07:00 PM 33.0204 128.4781 254° West  Level Estimated
Sat 12:08:00 PM 32.9850 128.3362 253° West  Level Estimated
Sat 12:08:45 PM 32.9230 128.2460 253° West 424 488 40,000  Level FlightAware ADS-B
Sat 12:09:30 PM 32.8920 128.1470 250° West 424 488 40,000  Level FlightAware ADS-B
Sat 12:10:22 PM 32.8570 128.0380 249° West 421 484 40,000  Level FlightAware ADS-B
Sat 12:11:00 PM 32.8290 127.9520 249° West 422 486 40,000  Level FlightAware ADS-B
Sat 12:12:14 PM 32.7870 127.8220 249° West 421 484 40,000  Level FlightAware ADS-B
Sat 12:12:56 PM 32.7480 127.7030 249° West 422 486 40,000  Level FlightAware ADS-B
Sat 12:13:35 PM 32.7200 127.6150 249° West 421 484 40,000  Level FlightAware ADS-B
Sat 12:14:17 PM 32.6920 127.5290 249° West 421 484 40,000 -752 Level FlightAware ADS-B
Sat 12:16:00 PM 32.6326 127.2858 254° West  Level Estimated
Sat 12:17:00 PM 32.5978 127.1442 254° West  Level Estimated
Sat 12:18:00 PM 32.5628 127.0028 254° West  Level Estimated
Sat 12:19:00 PM 32.5276 126.8615 254° West  Level Estimated
Sat 12:20:00 PM 32.4923 126.7203 254° West  Level Estimated
Sat 12:21:00 PM 32.4568 126.5792 253° West  Level Estimated
Sat 12:22:00 PM 32.4212 126.4382 253° West  Level Estimated
Sat 12:23:00 PM 32.3854 126.2974 253° West  Level Estimated
Sat 12:24:00 PM 32.3495 126.1566 253° West  Level Estimated
Sat 12:25:00 PM 32.3134 126.0160 253° West  Level Estimated
Sat 12:26:00 PM 32.2772 125.8754 253° West  Level Estimated
Sat 12:27:00 PM 32.2408 125.7350 253° West  Level Estimated
Sat 12:28:00 PM 32.2042 125.5947 253° West  Level Estimated
Sat 12:29:00 PM 32.1675 125.4545 253° West  Level Estimated
Sat 12:30:00 PM 32.1306 125.3144 253° West  Level Estimated
Sat 12:31:00 PM 32.0936 125.1744 253° West  Level Estimated
Sat 12:32:00 PM 32.0564 125.0346 253° West  Level Estimated
Sat 12:33:00 PM 32.0191 124.8948 253° West  Level Estimated
Sat 12:34:00 PM 31.9816 124.7552 252° West  Level Estimated
Sat 12:35:00 PM 31.9440 124.6157 252° West  Level Estimated
Sat 12:36:00 PM 31.9062 124.4763 252° West  Level Estimated
Sat 12:37:00 PM 31.8683 124.3370 252° West  Level Estimated
Sat 12:38:00 PM 31.8302 124.1979 252° West  Level Estimated
Sat 12:39:00 PM 31.7920 124.0588 252° West  Level Estimated
Sat 12:40:00 PM 31.7536 123.9199 252° West  Level Estimated
Sat 12:41:00 PM 31.7150 123.7810 252° West  Level Estimated
Sat 12:42:00 PM 31.6763 123.6423 252° West  Level Estimated
Sat 12:43:00 PM 31.6375 123.5037 252° West  Level Estimated
Sat 12:44:00 PM 31.5985 123.3653 252° West  Level Estimated
Sat 12:45:00 PM 31.5594 123.2269 252° West  Level Estimated
Sat 12:46:00 PM 31.5201 123.0887 252° West  Level Estimated
Sat 12:47:00 PM 31.4806 122.9505 252° West  Level Estimated
Sat 12:48:00 PM 31.4410 122.8125 251° West  Level Estimated
Sat 12:49:00 PM 31.4013 122.6746 251° West  Level Estimated
Sat 12:50:00 PM 31.3614 122.5368 251° West  Level Estimated
Sat 12:51:00 PM 31.3214 122.3992 251° West  Level Estimated
Sat 12:52:00 PM 31.2812 122.2617 251° West  Level Estimated
Sat 12:53:00 PM 31.2409 122.1242 251° West  Level Estimated
Sat 12:54:00 PM 31.2004 121.9869 251° West  Level Estimated
Sat 12:55:00 PM 31.1598 121.8497 251° West  Level Estimated
Sat 12:56:00 PM 31.1428 121.7924 251° West  Level Estimated
Sat 12:56:49 PM 31.3650 121.9900 221° Southwest 270 311 7,500  Level FlightAware ADS-B
Sat 12:57:00 PM 31.1428 121.7924 221° Southwest  Level Estimated
Sat 12:57:09 PM 31.3680 121.9560 276° West 261 300 6,900  Level FlightAware ADS-B
Sat 12:57:39 PM 31.3710 121.9170 275° West 234 269 6,500 -900 Descending FlightAware ADS-B
Sat 12:58:09 PM 31.3730 121.8810 274° West 214 246 6,000 -873 Descending FlightAware ADS-B
Sat 12:58:34 PM 31.3760 121.8530 277° West 199 229 5,700 -800 Descending FlightAware ADS-B
Sat 12:58:54 PM 31.3770 121.8310 273° West 192 221 5,400 -1,067 Descending FlightAware ADS-B
Sat 12:59:19 PM 31.3800 121.8060 278° West 193 222 4,900 -1,200 Descending FlightAware ADS-B
Sat 12:59:34 PM 31.3810 121.7900 274° West 192 221 4,600 -728 Descending FlightAware ADS-B
Sat 01:02:00 PM 31.1428 121.7924 180° South  Level Estimated
Sat 01:03:00 PM 31.1428 121.7924 221° Southwest  Level Estimated
Sat 01:03:51 PM 31.2350 121.7580 221° Southwest 151 174 1,600  Level FlightAware ADS-B
Sat 01:04:00 PM 31.1428 121.7924 221° Southwest  Level Estimated
Sat 01:04:51 PM 31.1910 121.7750 162° South 152 175 1,100  Level FlightAware ADS-B
Sat 01:07:00 PM 31.1428 121.7924 259° West  Level Estimated
Sat 01:08:00 PM 31.1428 121.7924 259° West  Level Estimated
Sat 01:09:00 PM 31.1428 121.7924 259° West  Level Estimated
Sat 01:10:00 PM 31.1428 121.7924 259° West  Level Estimated
Sat 01:11:00 PM 31.1428 121.7924 259° West  Level Estimated
Sat 01:12:00 PM 31.1428 121.7924 259° West  Level Estimated
Sat 01:13:00 PM 31.1428 121.7924 259° West  Level Estimated
Sat 01:14:00 PM 31.1428 121.7924 259° West  Level Estimated
Sat 01:15:00 PM 31.1428 121.7924 259° West  Level Estimated
Sat 01:16:00 PM 31.1428 121.7924 259° West  Level Estimated
Sat 01:17:00 PM 31.1428 121.7924 259° West  Level Estimated
Sat 01:18:00 PM 31.1428 121.7924 259° West  Level Estimated
Sat 01:19:00 PM 31.1428 121.7924 259° West  Level Estimated
Sat 01:20:00 PM 31.1428 121.7924 259° West  Level Estimated
Sat 01:21:00 PM 31.1428 121.7924 259° West  Level Estimated
Sat 01:22:00 PM 31.1428 121.7924 259° West  Level Estimated
Sat 01:23:00 PM 31.1428 121.7924 259° West  Level Estimated
Sat 01:24:00 PM 31.1428 121.7924 259° West  Level Estimated
Sat 01:25:00 PM 31.1428 121.7924 259° West  Level Estimated
Sat 01:26:00 PM 31.1428 121.7924 259° West  Level Estimated
Sat 01:27:00 PM 31.1428 121.7924 259° West  Level Estimated
Sat 01:28:00 PM 31.1428 121.7924 259° West  Level Estimated
Sat 01:29:00 PM 31.1428 121.7924 259° West  Level Estimated
Sat 01:30:00 PM 31.1428 121.7924 259° West  Level Estimated
Sat 01:31:00 PM 31.1428 121.7924 259° West  Level Estimated

Login

Don't have an account? Register now (free) for customized features, flight alerts, and more!